Terminal Aerodrome Forecast
Issued by NWS

Home | Current Version | Previous Version | Text Only | Print | Product List | Glossary On
Versions: 1 2 3 4 5 6 7 8 9 10 11 12 13 14 15 16 17 18 19 20 21 22 23 24 25 26 27 28
000
FTUS41 KOKX 010520
TAFHPN
TAF
KHPN 010520Z 0106/0206 VRB05KT 5SM BR VCSH SCT006 BKN012
      TEMPO 0108/0112 3SM TSRA BKN012CB
     FM011200 18004KT 6SM -SHRA BR VCTS BKN012CB
     FM011500 21007KT P6SM SCT025 BKN040
     FM011900 24010G18KT P6SM BKN050
     FM020100 28005KT P6SM BKN050
      AMD NOT SKED=

USA.gov is the U.S. government's official web portal to all federal, state and local government web resources and services.